Flight Track Log - Related Links

Times and Time Zones

All times are in EDT time to prevent confusion due to time zone crossing. See the SWA2874 flight status page for this flight to view local times or setup timezone preferences in your user account.

Time Position Orientation Groundspeed Altitude Reporting Facility
EDT Latitude Longitude Course Direction KTS MPH feet Rate Location/Type
Wed 05:57:42 PM 36.1667 -86.6000 50° Northeast 210 242 3,600  Level Nashville TRACON
Wed 05:58:42 PM 36.1500 -86.5333 107° East 290 334 5,800 3,184 Climbing Nashville TRACON
Wed 06:00:09 PM 36.1239 -86.3819 102° East 323 372 11,400 3,714 Climbing Memphis Center
Wed 06:01:09 PM 36.1008 -86.2469 102° East 347 399 14,900 3,421 Climbing Memphis Center
Wed 06:02:10 PM 36.0772 -86.1067 102° East 397 457 18,300 3,250 Climbing Memphis Center
Wed 06:03:09 PM 36.0617 -85.9561 97° East 421 484 21,400 3,394 Climbing Memphis Center
Wed 06:05:05 PM 36.0414 -85.6539 95° East 472 543 28,200 2,591 Climbing Atlanta Center
Wed 06:06:05 PM 36.0289 -85.4997 96° East 462 532 29,000 400 Climbing Atlanta Center
Wed 06:07:05 PM 36.0181 -85.3456 95° East 462 532 29,000  Level Atlanta Center
Wed 06:08:05 PM 36.0069 -85.1861 95° East 462 532 29,000  Level Atlanta Center
Wed 06:09:05 PM 35.9961 -85.0114 94° East 475 547 29,000  Level Atlanta Center
Wed 06:10:05 PM 35.9847 -84.8522 95° East 497 572 29,000  Level Atlanta Center
Wed 06:11:05 PM 35.9689 -84.6803 96° East 512 589 29,000  Level Atlanta Center
Wed 06:12:05 PM 35.9553 -84.5031 95° East 512 589 29,000  Level Atlanta Center
Wed 06:13:05 PM 35.9411 -84.3311 96° East 512 589 29,000  Level Atlanta Center
Wed 06:14:05 PM 35.9269 -84.1592 96° East 512 589 29,000 -900 Level Atlanta Center
Wed 06:15:05 PM 35.9103 -83.9875 97° East 507 583 27,200 -1,500 Descending Atlanta Center
Wed 06:16:05 PM 35.8933 -83.8158 97° East 502 578 26,000 -1,600 Descending Atlanta Center
Wed 06:17:05 PM 35.8719 -83.6467 99° East 502 578 24,000 -1,050 Descending Atlanta Center
Wed 06:18:05 PM 35.8506 -83.4981 100° East 475 547 23,900 -1,750 Descending Atlanta Center
Wed 06:19:05 PM 35.8289 -83.3472 100° East 448 516 20,500 -2,250 Descending Atlanta Center
Wed 06:20:05 PM 35.8069 -83.1836 99° East 437 503 19,400 -750 Descending Atlanta Center
Wed 06:21:05 PM 35.7831 -83.0456 102° East 426 490 19,000 -200 Descending Atlanta Center
Wed 06:22:05 PM 35.7278 -82.9233 119° Southeast 409 471 19,000  Level Atlanta Center
Wed 06:23:05 PM 35.6683 -82.8042 122° Southeast 402 463 19,000 -100 Level Atlanta Center
Wed 06:24:05 PM 35.6086 -82.6850 122° Southeast 409 471 18,800 -1,050 Descending Atlanta Center
Wed 06:25:05 PM 35.5508 -82.5658 121° Southeast 409 471 16,900 -2,200 Descending Atlanta Center
Wed 06:26:05 PM 35.4972 -82.4519 120° Southeast 399 459 14,400 -2,100 Descending Atlanta Center
Wed 06:27:05 PM 35.4414 -82.3386 121° Southeast 393 452 12,700 -1,800 Descending Atlanta Center
Wed 06:28:05 PM 35.3717 -82.2661 140° Southeast 348 400 10,800 -1,350 Descending Atlanta Center
Wed 06:29:05 PM 35.2881 -82.2603 177° South 308 354 10,000 -1,450 Descending Atlanta Center
Wed 06:30:05 PM 35.2286 -82.1953 138° Southeast 281 323 7,900 -1,450 Descending Atlanta Center
Wed 06:31:05 PM 35.1778 -82.1306 134° Southeast 264 304 7,100 -1,150 Descending Atlanta Center
Wed 06:32:05 PM 35.1231 -82.1064 160° South 243 280 5,600 -1,550 Descending Atlanta Center
Wed 06:33:05 PM 35.0647 -82.1153 187° South 214 246 4,000 -1,050 Descending Atlanta Center
Wed 06:34:05 PM 35.0192 -82.1292 194° South 194 223 3,500 -450 Descending Atlanta Center
Wed 06:35:05 PM 34.9733 -82.1478 198° South 171 197 3,100 3,750 Descending Atlanta Center
Wed 06:36:05 PM 34.9278 -82.1667 199° South 171 197 11,000 7,900 Climbing Atlanta Center
Wed 06:38:00 PM 34.8833 -82.2167 180° South  Level FlightAware Approximate
Wed 06:45:00 PM 34.8957 -82.2189 180° South  Level Estimated

Login

Don't have an account? Register now (free) for customized features, flight alerts, and more!